sensor_id;sensor_type;location;lat;lon;timestamp;P1;durP1;ratioP1;P2;durP2;ratioP2
74658;SDS011;63186;51.204;6.536;2023-04-06T00:01:06;16.98;;;9.07;;
74658;SDS011;63186;51.204;6.536;2023-04-06T00:03:31;15.68;;;9.13;;
74658;SDS011;63186;51.204;6.536;2023-04-06T00:05:57;16.07;;;9.83;;
74658;SDS011;63186;51.204;6.536;2023-04-06T00:08:22;16.00;;;9.47;;
74658;SDS011;63186;51.204;6.536;2023-04-06T00:10:48;15.65;;;9.05;;
74658;SDS011;63186;51.204;6.536;2023-04-06T00:13:13;16.20;;;9.43;;
74658;SDS011;63186;51.204;6.536;2023-04-06T00:15:39;17.17;;;9.25;;
74658;SDS011;63186;51.204;6.536;2023-04-06T00:18:05;16.40;;;8.40;;
74658;SDS011;63186;51.204;6.536;2023-04-06T00:20:30;16.88;;;9.27;;
74658;SDS011;63186;51.204;6.536;2023-04-06T00:22:55;14.77;;;8.05;;
74658;SDS011;63186;51.204;6.536;2023-04-06T00:25:21;18.40;;;8.80;;
74658;SDS011;63186;51.204;6.536;2023-04-06T00:27:46;14.03;;;8.77;;
74658;SDS011;63186;51.204;6.536;2023-04-06T00:30:11;15.40;;;9.23;;
74658;SDS011;63186;51.204;6.536;2023-04-06T00:32:37;14.98;;;7.90;;
74658;SDS011;63186;51.204;6.536;2023-04-06T00:35:02;15.50;;;7.50;;
74658;SDS011;63186;51.204;6.536;2023-04-06T00:37:28;17.48;;;8.80;;
74658;SDS011;63186;51.204;6.536;2023-04-06T00:39:53;17.13;;;8.65;;
74658;SDS011;63186;51.204;6.536;2023-04-06T00:42:19;14.50;;;7.90;;
74658;SDS011;63186;51.204;6.536;2023-04-06T00:44:51;15.38;;;8.05;;
74658;SDS011;63186;51.204;6.536;2023-04-06T00:47:18;14.68;;;7.40;;
74658;SDS011;63186;51.204;6.536;2023-04-06T00:49:43;14.98;;;7.55;;
74658;SDS011;63186;51.204;6.536;2023-04-06T00:52:08;15.37;;;7.73;;
74658;SDS011;63186;51.204;6.536;2023-04-06T00:54:34;15.52;;;7.60;;
74658;SDS011;63186;51.204;6.536;2023-04-06T00:56:59;14.93;;;7.55;;
74658;SDS011;63186;51.204;6.536;2023-04-06T00:59:25;13.45;;;7.45;;
74658;SDS011;63186;51.204;6.536;2023-04-06T01:01:52;13.45;;;7.40;;
74658;SDS011;63186;51.204;6.536;2023-04-06T01:04:17;16.48;;;7.60;;
74658;SDS011;63186;51.204;6.536;2023-04-06T01:06:43;14.32;;;7.90;;
74658;SDS011;63186;51.204;6.536;2023-04-06T01:09:08;16.10;;;8.53;;
74658;SDS011;63186;51.204;6.536;2023-04-06T01:11:33;15.97;;;8.33;;
74658;SDS011;63186;51.204;6.536;2023-04-06T01:14:00;17.50;;;9.50;;
74658;SDS011;63186;51.204;6.536;2023-04-06T01:16:26;14.20;;;7.43;;
74658;SDS011;63186;51.204;6.536;2023-04-06T01:18:51;14.93;;;8.57;;
74658;SDS011;63186;51.204;6.536;2023-04-06T01:21:16;19.17;;;9.30;;
74658;SDS011;63186;51.204;6.536;2023-04-06T01:23:42;16.83;;;8.90;;
74658;SDS011;63186;51.204;6.536;2023-04-06T01:26:10;15.35;;;8.88;;
74658;SDS011;63186;51.204;6.536;2023-04-06T01:28:35;18.50;;;9.45;;
74658;SDS011;63186;51.204;6.536;2023-04-06T01:31:02;16.92;;;9.82;;
74658;SDS011;63186;51.204;6.536;2023-04-06T01:33:27;19.95;;;10.48;;
74658;SDS011;63186;51.204;6.536;2023-04-06T01:35:53;16.63;;;9.83;;
74658;SDS011;63186;51.204;6.536;2023-04-06T01:38:18;16.50;;;9.33;;
74658;SDS011;63186;51.204;6.536;2023-04-06T01:40:43;17.60;;;10.65;;
74658;SDS011;63186;51.204;6.536;2023-04-06T01:43:08;18.88;;;10.05;;
74658;SDS011;63186;51.204;6.536;2023-04-06T01:45:34;16.90;;;10.27;;
74658;SDS011;63186;51.204;6.536;2023-04-06T01:47:59;16.55;;;9.70;;
74658;SDS011;63186;51.204;6.536;2023-04-06T01:50:25;15.10;;;9.10;;
74658;SDS011;63186;51.204;6.536;2023-04-06T01:52:50;18.17;;;9.97;;
74658;SDS011;63186;51.204;6.536;2023-04-06T01:55:15;16.40;;;8.83;;
74658;SDS011;63186;51.204;6.536;2023-04-06T01:57:41;20.35;;;11.65;;
74658;SDS011;63186;51.204;6.536;2023-04-06T02:00:06;19.27;;;10.67;;
74658;SDS011;63186;51.204;6.536;2023-04-06T02:02:32;21.20;;;11.38;;
74658;SDS011;63186;51.204;6.536;2023-04-06T02:04:57;17.88;;;9.85;;
74658;SDS011;63186;51.204;6.536;2023-04-06T02:07:22;17.63;;;9.87;;
74658;SDS011;63186;51.204;6.536;2023-04-06T02:09:48;21.02;;;12.32;;
74658;SDS011;63186;51.204;6.536;2023-04-06T02:12:13;21.77;;;12.88;;
74658;SDS011;63186;51.204;6.536;2023-04-06T02:14:38;21.93;;;11.97;;
74658;SDS011;63186;51.204;6.536;2023-04-06T02:17:04;20.23;;;11.63;;
74658;SDS011;63186;51.204;6.536;2023-04-06T02:19:29;20.65;;;10.20;;
74658;SDS011;63186;51.204;6.536;2023-04-06T02:21:55;20.70;;;10.83;;
74658;SDS011;63186;51.204;6.536;2023-04-06T02:24:20;20.27;;;9.88;;
74658;SDS011;63186;51.204;6.536;2023-04-06T02:26:45;18.27;;;10.60;;
74658;SDS011;63186;51.204;6.536;2023-04-06T02:29:11;18.13;;;10.27;;
74658;SDS011;63186;51.204;6.536;2023-04-06T02:31:36;18.53;;;10.00;;
74658;SDS011;63186;51.204;6.536;2023-04-06T02:34:01;18.47;;;10.23;;
74658;SDS011;63186;51.204;6.536;2023-04-06T02:36:27;15.32;;;9.43;;
74658;SDS011;63186;51.204;6.536;2023-04-06T02:38:52;18.00;;;10.97;;
74658;SDS011;63186;51.204;6.536;2023-04-06T02:41:17;17.67;;;10.20;;
74658;SDS011;63186;51.204;6.536;2023-04-06T02:43:43;18.85;;;10.63;;
74658;SDS011;63186;51.204;6.536;2023-04-06T02:46:08;19.63;;;11.27;;
74658;SDS011;63186;51.204;6.536;2023-04-06T02:48:33;17.27;;;10.50;;
74658;SDS011;63186;51.204;6.536;2023-04-06T02:51:01;16.60;;;11.40;;
74658;SDS011;63186;51.204;6.536;2023-04-06T02:53:26;17.80;;;10.73;;
74658;SDS011;63186;51.204;6.536;2023-04-06T02:55:52;18.98;;;11.07;;
74658;SDS011;63186;51.204;6.536;2023-04-06T02:58:18;17.55;;;10.07;;
74658;SDS011;63186;51.204;6.536;2023-04-06T03:00:43;19.80;;;11.57;;
74658;SDS011;63186;51.204;6.536;2023-04-06T03:03:08;16.10;;;10.15;;
74658;SDS011;63186;51.204;6.536;2023-04-06T03:05:34;13.90;;;8.70;;
74658;SDS011;63186;51.204;6.536;2023-04-06T03:07:59;15.75;;;9.60;;
74658;SDS011;63186;51.204;6.536;2023-04-06T03:10:25;18.63;;;9.17;;
74658;SDS011;63186;51.204;6.536;2023-04-06T03:12:50;16.50;;;9.00;;
74658;SDS011;63186;51.204;6.536;2023-04-06T03:15:15;17.90;;;10.05;;
74658;SDS011;63186;51.204;6.536;2023-04-06T03:17:41;21.00;;;9.47;;
74658;SDS011;63186;51.204;6.536;2023-04-06T03:20:06;17.73;;;9.53;;
74658;SDS011;63186;51.204;6.536;2023-04-06T03:22:31;16.60;;;9.95;;
74658;SDS011;63186;51.204;6.536;2023-04-06T03:24:57;17.53;;;10.13;;
74658;SDS011;63186;51.204;6.536;2023-04-06T03:27:22;21.43;;;9.37;;
74658;SDS011;63186;51.204;6.536;2023-04-06T03:29:47;18.97;;;9.40;;
74658;SDS011;63186;51.204;6.536;2023-04-06T03:32:13;20.70;;;11.05;;
74658;SDS011;63186;51.204;6.536;2023-04-06T03:34:38;20.37;;;11.47;;
74658;SDS011;63186;51.204;6.536;2023-04-06T03:37:04;21.13;;;11.05;;
74658;SDS011;63186;51.204;6.536;2023-04-06T03:39:29;19.92;;;10.88;;
74658;SDS011;63186;51.204;6.536;2023-04-06T03:41:55;18.92;;;10.20;;
74658;SDS011;63186;51.204;6.536;2023-04-06T03:44:20;21.23;;;11.40;;
74658;SDS011;63186;51.204;6.536;2023-04-06T03:46:45;21.70;;;11.27;;
74658;SDS011;63186;51.204;6.536;2023-04-06T03:49:11;17.07;;;9.07;;
74658;SDS011;63186;51.204;6.536;2023-04-06T03:51:36;16.03;;;9.10;;
74658;SDS011;63186;51.204;6.536;2023-04-06T03:54:01;18.38;;;10.02;;
74658;SDS011;63186;51.204;6.536;2023-04-06T03:56:26;20.43;;;10.17;;
74658;SDS011;63186;51.204;6.536;2023-04-06T03:58:52;20.73;;;10.10;;
74658;SDS011;63186;51.204;6.536;2023-04-06T04:01:17;20.58;;;10.50;;
74658;SDS011;63186;51.204;6.536;2023-04-06T04:03:43;19.67;;;10.52;;
74658;SDS011;63186;51.204;6.536;2023-04-06T04:06:08;22.55;;;11.48;;
74658;SDS011;63186;51.204;6.536;2023-04-06T04:08:34;17.70;;;10.07;;
74658;SDS011;63186;51.204;6.536;2023-04-06T04:11:00;21.95;;;11.70;;
74658;SDS011;63186;51.204;6.536;2023-04-06T04:13:25;19.65;;;10.90;;
74658;SDS011;63186;51.204;6.536;2023-04-06T04:15:51;19.90;;;9.83;;
74658;SDS011;63186;51.204;6.536;2023-04-06T04:18:16;17.07;;;10.20;;
74658;SDS011;63186;51.204;6.536;2023-04-06T04:20:41;17.13;;;10.13;;
74658;SDS011;63186;51.204;6.536;2023-04-06T04:23:06;20.03;;;9.60;;
74658;SDS011;63186;51.204;6.536;2023-04-06T04:25:32;19.43;;;9.73;;
74658;SDS011;63186;51.204;6.536;2023-04-06T04:27:57;18.83;;;9.43;;
74658;SDS011;63186;51.204;6.536;2023-04-06T04:30:22;21.73;;;10.77;;
74658;SDS011;63186;51.204;6.536;2023-04-06T04:32:48;22.05;;;9.98;;
74658;SDS011;63186;51.204;6.536;2023-04-06T04:35:13;19.17;;;10.87;;
74658;SDS011;63186;51.204;6.536;2023-04-06T04:37:40;19.35;;;10.80;;
74658;SDS011;63186;51.204;6.536;2023-04-06T04:40:06;22.73;;;10.30;;
74658;SDS011;63186;51.204;6.536;2023-04-06T04:42:31;19.48;;;10.30;;
74658;SDS011;63186;51.204;6.536;2023-04-06T04:44:57;25.97;;;11.70;;
74658;SDS011;63186;51.204;6.536;2023-04-06T04:47:22;18.23;;;10.82;;
74658;SDS011;63186;51.204;6.536;2023-04-06T04:49:47;16.27;;;9.63;;
74658;SDS011;63186;51.204;6.536;2023-04-06T04:52:13;17.87;;;9.40;;
74658;SDS011;63186;51.204;6.536;2023-04-06T04:54:38;20.87;;;11.30;;
74658;SDS011;63186;51.204;6.536;2023-04-06T04:57:05;21.33;;;10.27;;
74658;SDS011;63186;51.204;6.536;2023-04-06T04:59:31;19.27;;;10.10;;
74658;SDS011;63186;51.204;6.536;2023-04-06T05:01:56;16.42;;;8.35;;
74658;SDS011;63186;51.204;6.536;2023-04-06T05:04:22;21.02;;;10.95;;
74658;SDS011;63186;51.204;6.536;2023-04-06T05:06:47;16.33;;;8.90;;
74658;SDS011;63186;51.204;6.536;2023-04-06T05:09:12;21.07;;;10.70;;
74658;SDS011;63186;51.204;6.536;2023-04-06T05:11:37;20.60;;;12.73;;
74658;SDS011;63186;51.204;6.536;2023-04-06T05:14:03;20.13;;;10.60;;
74658;SDS011;63186;51.204;6.536;2023-04-06T05:16:28;23.40;;;10.90;;
74658;SDS011;63186;51.204;6.536;2023-04-06T05:18:53;21.15;;;11.15;;
74658;SDS011;63186;51.204;6.536;2023-04-06T05:21:21;20.00;;;11.10;;
74658;SDS011;63186;51.204;6.536;2023-04-06T05:23:46;22.43;;;11.13;;
74658;SDS011;63186;51.204;6.536;2023-04-06T05:26:12;20.43;;;11.33;;
74658;SDS011;63186;51.204;6.536;2023-04-06T05:28:37;21.70;;;12.07;;
74658;SDS011;63186;51.204;6.536;2023-04-06T05:31:03;22.30;;;11.95;;
74658;SDS011;63186;51.204;6.536;2023-04-06T05:33:28;21.55;;;10.95;;
74658;SDS011;63186;51.204;6.536;2023-04-06T05:35:55;21.02;;;10.88;;
74658;SDS011;63186;51.204;6.536;2023-04-06T05:38:20;22.37;;;12.63;;
74658;SDS011;63186;51.204;6.536;2023-04-06T05:40:46;16.80;;;10.27;;
74658;SDS011;63186;51.204;6.536;2023-04-06T05:43:11;21.50;;;10.77;;
74658;SDS011;63186;51.204;6.536;2023-04-06T05:45:36;17.93;;;10.10;;
74658;SDS011;63186;51.204;6.536;2023-04-06T05:48:02;18.58;;;10.10;;
74658;SDS011;63186;51.204;6.536;2023-04-06T05:50:27;20.73;;;10.45;;
74658;SDS011;63186;51.204;6.536;2023-04-06T05:52:53;24.55;;;11.13;;
74658;SDS011;63186;51.204;6.536;2023-04-06T05:55:18;16.87;;;9.23;;
74658;SDS011;63186;51.204;6.536;2023-04-06T05:57:44;19.80;;;10.73;;
74658;SDS011;63186;51.204;6.536;2023-04-06T06:00:09;17.55;;;10.05;;
74658;SDS011;63186;51.204;6.536;2023-04-06T06:02:35;21.08;;;9.98;;
74658;SDS011;63186;51.204;6.536;2023-04-06T06:05:00;16.10;;;9.05;;
74658;SDS011;63186;51.204;6.536;2023-04-06T06:07:26;18.25;;;9.50;;
74658;SDS011;63186;51.204;6.536;2023-04-06T06:09:51;16.33;;;10.05;;
74658;SDS011;63186;51.204;6.536;2023-04-06T06:12:17;18.90;;;10.57;;
74658;SDS011;63186;51.204;6.536;2023-04-06T06:14:42;14.53;;;7.73;;
74658;SDS011;63186;51.204;6.536;2023-04-06T06:17:07;17.50;;;9.70;;
74658;SDS011;63186;51.204;6.536;2023-04-06T06:19:33;13.88;;;8.77;;
74658;SDS011;63186;51.204;6.536;2023-04-06T06:21:58;14.07;;;9.05;;
74658;SDS011;63186;51.204;6.536;2023-04-06T06:24:26;17.00;;;9.15;;
74658;SDS011;63186;51.204;6.536;2023-04-06T06:26:52;15.02;;;8.43;;
74658;SDS011;63186;51.204;6.536;2023-04-06T06:29:17;17.73;;;9.05;;
74658;SDS011;63186;51.204;6.536;2023-04-06T06:31:43;16.00;;;9.82;;
74658;SDS011;63186;51.204;6.536;2023-04-06T06:34:08;14.67;;;8.13;;
74658;SDS011;63186;51.204;6.536;2023-04-06T06:36:33;15.35;;;9.10;;
74658;SDS011;63186;51.204;6.536;2023-04-06T06:39:00;14.40;;;8.75;;
74658;SDS011;63186;51.204;6.536;2023-04-06T06:41:25;16.67;;;8.95;;
74658;SDS011;63186;51.204;6.536;2023-04-06T06:43:51;17.17;;;9.32;;
74658;SDS011;63186;51.204;6.536;2023-04-06T06:46:16;18.85;;;9.85;;
74658;SDS011;63186;51.204;6.536;2023-04-06T06:48:42;15.52;;;8.40;;
74658;SDS011;63186;51.204;6.536;2023-04-06T06:51:07;16.27;;;10.18;;
74658;SDS011;63186;51.204;6.536;2023-04-06T06:53:34;15.27;;;9.00;;
74658;SDS011;63186;51.204;6.536;2023-04-06T06:56:00;15.88;;;9.13;;
74658;SDS011;63186;51.204;6.536;2023-04-06T06:58:25;17.80;;;9.27;;
74658;SDS011;63186;51.204;6.536;2023-04-06T07:00:55;20.58;;;9.00;;
74658;SDS011;63186;51.204;6.536;2023-04-06T07:03:21;17.67;;;10.15;;
74658;SDS011;63186;51.204;6.536;2023-04-06T07:05:46;16.63;;;9.60;;
74658;SDS011;63186;51.204;6.536;2023-04-06T07:08:18;15.70;;;10.38;;
74658;SDS011;63186;51.204;6.536;2023-04-06T07:10:47;16.00;;;9.70;;
74658;SDS011;63186;51.204;6.536;2023-04-06T07:13:13;20.48;;;10.63;;
74658;SDS011;63186;51.204;6.536;2023-04-06T07:15:43;14.45;;;9.07;;
74658;SDS011;63186;51.204;6.536;2023-04-06T07:18:09;16.80;;;9.07;;
74658;SDS011;63186;51.204;6.536;2023-04-06T07:20:34;15.20;;;9.15;;
74658;SDS011;63186;51.204;6.536;2023-04-06T07:22:59;15.97;;;8.83;;
74658;SDS011;63186;51.204;6.536;2023-04-06T07:25:25;18.35;;;9.18;;
74658;SDS011;63186;51.204;6.536;2023-04-06T07:27:50;17.37;;;9.70;;
74658;SDS011;63186;51.204;6.536;2023-04-06T07:30:15;19.67;;;9.03;;
74658;SDS011;63186;51.204;6.536;2023-04-06T07:32:41;17.52;;;9.52;;
74658;SDS011;63186;51.204;6.536;2023-04-06T07:35:06;21.03;;;9.40;;
74658;SDS011;63186;51.204;6.536;2023-04-06T07:37:32;16.98;;;9.43;;
74658;SDS011;63186;51.204;6.536;2023-04-06T07:39:57;15.60;;;8.73;;
74658;SDS011;63186;51.204;6.536;2023-04-06T07:42:22;17.37;;;9.67;;
74658;SDS011;63186;51.204;6.536;2023-04-06T07:44:48;16.37;;;8.60;;
74658;SDS011;63186;51.204;6.536;2023-04-06T07:47:13;16.73;;;9.13;;
74658;SDS011;63186;51.204;6.536;2023-04-06T07:49:38;15.50;;;9.05;;
74658;SDS011;63186;51.204;6.536;2023-04-06T07:52:04;15.43;;;8.85;;
74658;SDS011;63186;51.204;6.536;2023-04-06T07:54:29;14.93;;;9.52;;
74658;SDS011;63186;51.204;6.536;2023-04-06T07:56:56;16.85;;;9.77;;
74658;SDS011;63186;51.204;6.536;2023-04-06T07:59:21;17.88;;;10.15;;
74658;SDS011;63186;51.204;6.536;2023-04-06T08:01:47;13.83;;;8.30;;
74658;SDS011;63186;51.204;6.536;2023-04-06T08:04:12;15.60;;;9.47;;
74658;SDS011;63186;51.204;6.536;2023-04-06T08:06:37;17.65;;;10.52;;
74658;SDS011;63186;51.204;6.536;2023-04-06T08:09:03;16.30;;;9.07;;
74658;SDS011;63186;51.204;6.536;2023-04-06T08:11:28;16.15;;;10.05;;
74658;SDS011;63186;51.204;6.536;2023-04-06T08:13:54;14.60;;;8.50;;
74658;SDS011;63186;51.204;6.536;2023-04-06T08:16:21;15.52;;;7.70;;
74658;SDS011;63186;51.204;6.536;2023-04-06T08:18:47;17.35;;;10.30;;
74658;SDS011;63186;51.204;6.536;2023-04-06T08:21:12;15.80;;;10.15;;
74658;SDS011;63186;51.204;6.536;2023-04-06T08:23:38;16.23;;;9.07;;
74658;SDS011;63186;51.204;6.536;2023-04-06T08:26:03;20.73;;;9.63;;
74658;SDS011;63186;51.204;6.536;2023-04-06T08:28:28;16.30;;;9.98;;
74658;SDS011;63186;51.204;6.536;2023-04-06T08:30:53;16.80;;;10.67;;
74658;SDS011;63186;51.204;6.536;2023-04-06T08:33:19;17.40;;;9.02;;
74658;SDS011;63186;51.204;6.536;2023-04-06T08:35:44;18.17;;;9.40;;
74658;SDS011;63186;51.204;6.536;2023-04-06T08:38:10;14.33;;;8.37;;
74658;SDS011;63186;51.204;6.536;2023-04-06T08:40:36;17.98;;;8.88;;
74658;SDS011;63186;51.204;6.536;2023-04-06T08:43:02;16.20;;;8.43;;
74658;SDS011;63186;51.204;6.536;2023-04-06T08:45:33;18.50;;;10.23;;
74658;SDS011;63186;51.204;6.536;2023-04-06T08:47:59;19.00;;;11.05;;
74658;SDS011;63186;51.204;6.536;2023-04-06T08:50:26;16.38;;;9.88;;
74658;SDS011;63186;51.204;6.536;2023-04-06T08:52:54;15.25;;;9.02;;
74658;SDS011;63186;51.204;6.536;2023-04-06T08:55:20;15.45;;;9.05;;
74658;SDS011;63186;51.204;6.536;2023-04-06T08:57:47;22.00;;;9.75;;
74658;SDS011;63186;51.204;6.536;2023-04-06T09:00:13;18.60;;;10.57;;
74658;SDS011;63186;51.204;6.536;2023-04-06T09:02:39;17.17;;;9.68;;
74658;SDS011;63186;51.204;6.536;2023-04-06T09:05:07;17.52;;;10.77;;
74658;SDS011;63186;51.204;6.536;2023-04-06T09:07:34;17.38;;;10.27;;
74658;SDS011;63186;51.204;6.536;2023-04-06T09:10:00;17.00;;;10.45;;
74658;SDS011;63186;51.204;6.536;2023-04-06T09:12:27;16.80;;;8.80;;
74658;SDS011;63186;51.204;6.536;2023-04-06T09:14:54;15.93;;;9.98;;
74658;SDS011;63186;51.204;6.536;2023-04-06T09:17:28;17.35;;;10.50;;
74658;SDS011;63186;51.204;6.536;2023-04-06T09:19:59;17.30;;;9.95;;
74658;SDS011;63186;51.204;6.536;2023-04-06T09:22:25;18.33;;;9.82;;
74658;SDS011;63186;51.204;6.536;2023-04-06T09:24:52;17.90;;;9.40;;
74658;SDS011;63186;51.204;6.536;2023-04-06T09:27:31;17.42;;;10.85;;
74658;SDS011;63186;51.204;6.536;2023-04-06T09:30:04;17.38;;;9.80;;
74658;SDS011;63186;51.204;6.536;2023-04-06T09:32:31;17.58;;;8.95;;
74658;SDS011;63186;51.204;6.536;2023-04-06T09:35:06;18.00;;;9.38;;
74658;SDS011;63186;51.204;6.536;2023-04-06T09:37:34;16.15;;;8.77;;
74658;SDS011;63186;51.204;6.536;2023-04-06T09:40:07;21.10;;;11.23;;
74658;SDS011;63186;51.204;6.536;2023-04-06T09:42:33;17.63;;;8.98;;
74658;SDS011;63186;51.204;6.536;2023-04-06T09:45:00;17.15;;;9.73;;
74658;SDS011;63186;51.204;6.536;2023-04-06T09:47:26;19.80;;;10.82;;
74658;SDS011;63186;51.204;6.536;2023-04-06T09:49:55;20.50;;;10.95;;
74658;SDS011;63186;51.204;6.536;2023-04-06T09:52:26;18.95;;;10.35;;
74658;SDS011;63186;51.204;6.536;2023-04-06T09:54:55;16.38;;;9.98;;
74658;SDS011;63186;51.204;6.536;2023-04-06T09:58:24;17.30;;;10.43;;
74658;SDS011;63186;51.204;6.536;2023-04-06T10:00:35;20.70;;;10.25;;
74658;SDS011;63186;51.204;6.536;2023-04-06T10:03:11;18.08;;;10.88;;
74658;SDS011;63186;51.204;6.536;2023-04-06T10:05:52;18.00;;;10.60;;
74658;SDS011;63186;51.204;6.536;2023-04-06T10:08:28;21.15;;;9.98;;
74658;SDS011;63186;51.204;6.536;2023-04-06T10:10:55;20.90;;;10.95;;
74658;SDS011;63186;51.204;6.536;2023-04-06T10:13:21;18.25;;;10.80;;
74658;SDS011;63186;51.204;6.536;2023-04-06T10:15:49;21.70;;;11.02;;
74658;SDS011;63186;51.204;6.536;2023-04-06T10:18:16;20.50;;;11.10;;
74658;SDS011;63186;51.204;6.536;2023-04-06T10:20:43;21.92;;;10.05;;
74658;SDS011;63186;51.204;6.536;2023-04-06T10:25:57;19.40;;;9.50;;
74658;SDS011;63186;51.204;6.536;2023-04-06T10:28:23;17.63;;;9.10;;
74658;SDS011;63186;51.204;6.536;2023-04-06T10:30:49;17.55;;;8.50;;
74658;SDS011;63186;51.204;6.536;2023-04-06T10:33:22;15.00;;;7.97;;
74658;SDS011;63186;51.204;6.536;2023-04-06T10:35:48;17.23;;;8.45;;
74658;SDS011;63186;51.204;6.536;2023-04-06T10:38:13;18.02;;;8.63;;
74658;SDS011;63186;51.204;6.536;2023-04-06T10:40:39;21.92;;;8.93;;
74658;SDS011;63186;51.204;6.536;2023-04-06T10:43:08;19.70;;;9.27;;
74658;SDS011;63186;51.204;6.536;2023-04-06T10:45:38;17.42;;;8.27;;
74658;SDS011;63186;51.204;6.536;2023-04-06T10:48:14;15.75;;;8.55;;
74658;SDS011;63186;51.204;6.536;2023-04-06T10:50:44;21.77;;;8.77;;
74658;SDS011;63186;51.204;6.536;2023-04-06T10:53:11;21.48;;;9.52;;
74658;SDS011;63186;51.204;6.536;2023-04-06T10:55:38;19.30;;;8.75;;
74658;SDS011;63186;51.204;6.536;2023-04-06T11:00:33;17.23;;;8.65;;
74658;SDS011;63186;51.204;6.536;2023-04-06T11:03:00;16.77;;;8.95;;
74658;SDS011;63186;51.204;6.536;2023-04-06T11:07:53;17.90;;;9.53;;
74658;SDS011;63186;51.204;6.536;2023-04-06T11:10:22;17.02;;;8.50;;
74658;SDS011;63186;51.204;6.536;2023-04-06T11:12:52;16.65;;;8.90;;
74658;SDS011;63186;51.204;6.536;2023-04-06T11:15:20;17.55;;;9.57;;
74658;SDS011;63186;51.204;6.536;2023-04-06T11:17:46;17.40;;;8.90;;
74658;SDS011;63186;51.204;6.536;2023-04-06T11:20:11;16.15;;;8.73;;
74658;SDS011;63186;51.204;6.536;2023-04-06T11:22:47;18.42;;;9.48;;
74658;SDS011;63186;51.204;6.536;2023-04-06T11:25:15;19.40;;;9.10;;
74658;SDS011;63186;51.204;6.536;2023-04-06T11:27:42;17.25;;;9.15;;
74658;SDS011;63186;51.204;6.536;2023-04-06T11:30:08;21.63;;;10.55;;
74658;SDS011;63186;51.204;6.536;2023-04-06T11:32:44;19.77;;;9.88;;
74658;SDS011;63186;51.204;6.536;2023-04-06T11:35:11;21.60;;;11.38;;
74658;SDS011;63186;51.204;6.536;2023-04-06T11:37:48;19.67;;;10.77;;
74658;SDS011;63186;51.204;6.536;2023-04-06T11:40:20;21.55;;;9.38;;
74658;SDS011;63186;51.204;6.536;2023-04-06T11:42:53;21.33;;;9.25;;
74658;SDS011;63186;51.204;6.536;2023-04-06T11:45:20;17.40;;;9.15;;
74658;SDS011;63186;51.204;6.536;2023-04-06T11:47:45;16.58;;;7.97;;
74658;SDS011;63186;51.204;6.536;2023-04-06T11:50:24;17.00;;;8.50;;
74658;SDS011;63186;51.204;6.536;2023-04-06T11:52:59;13.63;;;6.82;;
74658;SDS011;63186;51.204;6.536;2023-04-06T11:55:26;14.48;;;7.68;;
74658;SDS011;63186;51.204;6.536;2023-04-06T11:57:51;13.65;;;7.85;;
74658;SDS011;63186;51.204;6.536;2023-04-06T12:00:17;13.40;;;7.00;;
74658;SDS011;63186;51.204;6.536;2023-04-06T12:02:46;15.27;;;7.72;;
74658;SDS011;63186;51.204;6.536;2023-04-06T12:05:13;14.07;;;6.95;;
74658;SDS011;63186;51.204;6.536;2023-04-06T12:07:38;12.27;;;7.28;;
74658;SDS011;63186;51.204;6.536;2023-04-06T12:10:04;13.07;;;7.43;;
74658;SDS011;63186;51.204;6.536;2023-04-06T12:12:30;13.07;;;6.65;;
74658;SDS011;63186;51.204;6.536;2023-04-06T12:14:56;14.52;;;6.43;;
74658;SDS011;63186;51.204;6.536;2023-04-06T12:17:21;13.02;;;6.38;;
74658;SDS011;63186;51.204;6.536;2023-04-06T12:19:48;11.07;;;5.18;;
74658;SDS011;63186;51.204;6.536;2023-04-06T12:22:13;9.73;;;4.30;;
74658;SDS011;63186;51.204;6.536;2023-04-06T12:24:38;11.63;;;5.30;;
74658;SDS011;63186;51.204;6.536;2023-04-06T12:27:04;11.73;;;5.60;;
74658;SDS011;63186;51.204;6.536;2023-04-06T12:29:29;11.33;;;4.93;;
74658;SDS011;63186;51.204;6.536;2023-04-06T12:31:55;10.35;;;4.43;;
74658;SDS011;63186;51.204;6.536;2023-04-06T12:34:21;10.73;;;4.05;;
74658;SDS011;63186;51.204;6.536;2023-04-06T12:36:46;8.70;;;3.90;;
74658;SDS011;63186;51.204;6.536;2023-04-06T12:39:11;9.33;;;4.30;;
74658;SDS011;63186;51.204;6.536;2023-04-06T12:41:37;13.03;;;4.47;;
74658;SDS011;63186;51.204;6.536;2023-04-06T12:44:05;10.77;;;5.25;;
74658;SDS011;63186;51.204;6.536;2023-04-06T12:46:31;9.82;;;4.70;;
74658;SDS011;63186;51.204;6.536;2023-04-06T12:48:56;9.82;;;4.93;;
74658;SDS011;63186;51.204;6.536;2023-04-06T12:51:22;10.20;;;5.35;;
74658;SDS011;63186;51.204;6.536;2023-04-06T12:53:48;11.30;;;5.93;;
74658;SDS011;63186;51.204;6.536;2023-04-06T12:56:14;10.93;;;5.80;;
74658;SDS011;63186;51.204;6.536;2023-04-06T12:58:42;10.55;;;5.68;;
74658;SDS011;63186;51.204;6.536;2023-04-06T13:01:08;11.98;;;5.80;;
74658;SDS011;63186;51.204;6.536;2023-04-06T13:03:33;10.95;;;5.30;;
74658;SDS011;63186;51.204;6.536;2023-04-06T13:05:59;11.63;;;5.03;;
74658;SDS011;63186;51.204;6.536;2023-04-06T13:08:26;9.50;;;5.07;;
74658;SDS011;63186;51.204;6.536;2023-04-06T13:10:52;12.75;;;5.63;;
74658;SDS011;63186;51.204;6.536;2023-04-06T13:13:21;12.60;;;6.20;;
74658;SDS011;63186;51.204;6.536;2023-04-06T13:15:59;12.35;;;5.75;;
74658;SDS011;63186;51.204;6.536;2023-04-06T13:18:27;11.77;;;5.43;;
74658;SDS011;63186;51.204;6.536;2023-04-06T13:20:54;11.75;;;5.40;;
74658;SDS011;63186;51.204;6.536;2023-04-06T13:23:21;10.65;;;5.75;;
74658;SDS011;63186;51.204;6.536;2023-04-06T13:25:46;13.57;;;6.68;;
74658;SDS011;63186;51.204;6.536;2023-04-06T13:28:11;12.73;;;6.23;;
74658;SDS011;63186;51.204;6.536;2023-04-06T13:30:37;12.23;;;6.00;;
74658;SDS011;63186;51.204;6.536;2023-04-06T13:33:02;13.82;;;6.38;;
74658;SDS011;63186;51.204;6.536;2023-04-06T13:35:28;11.57;;;6.00;;
74658;SDS011;63186;51.204;6.536;2023-04-06T13:37:53;14.33;;;6.67;;
74658;SDS011;63186;51.204;6.536;2023-04-06T13:40:18;11.80;;;5.93;;
74658;SDS011;63186;51.204;6.536;2023-04-06T13:42:44;11.20;;;6.25;;
74658;SDS011;63186;51.204;6.536;2023-04-06T13:45:11;11.55;;;6.45;;
74658;SDS011;63186;51.204;6.536;2023-04-06T13:47:36;12.50;;;6.25;;
74658;SDS011;63186;51.204;6.536;2023-04-06T13:50:01;14.63;;;6.53;;
74658;SDS011;63186;51.204;6.536;2023-04-06T13:52:28;10.32;;;5.53;;
74658;SDS011;63186;51.204;6.536;2023-04-06T13:54:53;11.98;;;5.47;;
74658;SDS011;63186;51.204;6.536;2023-04-06T13:57:19;11.45;;;5.60;;
74658;SDS011;63186;51.204;6.536;2023-04-06T13:59:44;11.43;;;5.33;;
74658;SDS011;63186;51.204;6.536;2023-04-06T14:02:10;11.03;;;5.50;;
74658;SDS011;63186;51.204;6.536;2023-04-06T14:04:36;12.25;;;7.10;;
74658;SDS011;63186;51.204;6.536;2023-04-06T14:07:01;13.70;;;7.05;;
74658;SDS011;63186;51.204;6.536;2023-04-06T14:09:28;12.35;;;6.10;;
74658;SDS011;63186;51.204;6.536;2023-04-06T14:11:54;13.52;;;7.20;;
74658;SDS011;63186;51.204;6.536;2023-04-06T14:14:20;12.07;;;6.25;;
74658;SDS011;63186;51.204;6.536;2023-04-06T14:16:46;13.93;;;7.32;;
74658;SDS011;63186;51.204;6.536;2023-04-06T14:19:12;14.80;;;7.63;;
74658;SDS011;63186;51.204;6.536;2023-04-06T14:21:40;13.15;;;6.72;;
74658;SDS011;63186;51.204;6.536;2023-04-06T14:24:06;13.07;;;6.95;;
74658;SDS011;63186;51.204;6.536;2023-04-06T14:26:33;14.20;;;5.90;;
74658;SDS011;63186;51.204;6.536;2023-04-06T14:28:59;16.33;;;6.70;;
74658;SDS011;63186;51.204;6.536;2023-04-06T14:31:25;14.20;;;6.82;;
74658;SDS011;63186;51.204;6.536;2023-04-06T14:33:51;13.90;;;6.65;;